»·PEaware :: DAL2189 KSLC-KPDX

DAL2189 :: KSLC-KPDX

FLIGHT INFORMATION

Flight Status: Arrived
Operator:
Delta Air Lines
More flights by this operator :: More flights under this callsign
Pilot: Joe P. (13940)
Aircraft: BOEING 737-700
(B737)
More flights by this aircraft type
Origin: KSLC Salt Lake City Intl
United States
Destination: KPDX Portland Intl
United States
More flights between these airports :: More routes between these airports
Route: CGULL1 TWF J15 BOI J163 BKE JOTBA HHOOD4
File this flight plan on PilotEdge
Remarks: KSEA -PBN / A1B1C1D1L1O1S1 NAV / RNVD1E2A1 DOF / 181111 REG / N389DA EET / KZSE0101 RVR / 200 PER / C
Altitude:
(Current/Filed)
340ft
Speed:
(Current/Filed)
453kts
Departed: 11-Nov-18 08:16 AM
Arrived: 11-Nov-18 09:57 AM
Distance/Time
Traveled:
546nm/1:41
Distance/Time
To Go:
Arrived

Flight Plot

Page will automatically refresh every two minutes.

Flight plan parsing failed; only flown route is shown


Map Options




Map Legend


Flown Route
Filed Route
Departure Airport
Arrival Airport
Navaid (VOR, NDB)
Fix

Horizontal Profiles

Position Reports

Time Latitude Longitude Heading Altitude Ground
Speed
11-Nov-18 07:47 40.788533 -111.980747 280 4235ft 0kts
11-Nov-18 07:48 40.788533 -111.980747 280 4235ft 0kts
11-Nov-18 07:49 40.788533 -111.980747 280 4235ft 0kts
11-Nov-18 07:50 40.788533 -111.980747 280 4235ft 0kts
11-Nov-18 07:51 40.788533 -111.980747 280 4235ft 0kts
11-Nov-18 07:52 40.788533 -111.980747 280 4235ft 0kts
11-Nov-18 07:53 40.788533 -111.980747 280 4235ft 0kts
11-Nov-18 07:54 40.788533 -111.980747 280 4235ft 0kts
11-Nov-18 07:55 40.788533 -111.980747 280 4235ft 0kts
11-Nov-18 07:56 40.788533 -111.980747 280 4235ft 0kts
11-Nov-18 07:57 40.788533 -111.980747 280 4235ft 0kts
11-Nov-18 07:58 40.788533 -111.980747 280 4235ft 0kts
11-Nov-18 07:59 40.788533 -111.980747 280 4235ft 0kts
11-Nov-18 08:00 40.788445 -111.980148 280 4235ft 2kts
11-Nov-18 08:01 40.788362 -111.979584 280 4235ft 0kts
11-Nov-18 08:02 40.788362 -111.979584 280 4235ft 0kts
11-Nov-18 08:03 40.788362 -111.979584 280 4235ft 0kts
11-Nov-18 08:04 40.788362 -111.979584 280 4235ft 0kts
11-Nov-18 08:05 40.788362 -111.979584 280 4235ft 0kts
11-Nov-18 08:06 40.788362 -111.979584 280 4235ft 0kts
11-Nov-18 08:07 40.788362 -111.979584 280 4235ft 0kts
11-Nov-18 08:08 40.788362 -111.979584 280 4235ft 0kts
11-Nov-18 08:09 40.788362 -111.979584 280 4235ft 0kts
11-Nov-18 08:10 40.788363 -111.979586 280 4235ft 0kts
11-Nov-18 08:11 40.788363 -111.979587 280 4235ft 0kts
11-Nov-18 08:12 40.788696 -111.980025 345 4235ft 7kts
11-Nov-18 08:13 40.789763 -111.977851 85 4235ft 6kts
11-Nov-18 08:14 40.792524 -111.977476 355 4235ft 15kts
11-Nov-18 08:15 40.797368 -111.978007 354 4235ft 19kts
11-Nov-18 08:16 40.802936 -111.978694 354 4235ft 19kts
11-Nov-18 08:17 40.807329 -111.979031 40 4235ft 9kts
11-Nov-18 08:18 40.807179 -111.977031 141 4235ft 10kts
11-Nov-18 08:19 40.790627 -111.974946 175 4335ft 172kts
11-Nov-18 08:20 40.759382 -112.017791 293 6620ft 245kts
11-Nov-18 08:21 40.799364 -112.092075 307 9631ft 254kts
11-Nov-18 08:22 40.849457 -112.160220 319 10546ft 281kts
11-Nov-18 08:23 40.913907 -112.237423 320 12980ft 328kts
11-Nov-18 08:24 40.982405 -112.320023 321 16234ft 338kts
11-Nov-18 08:25 41.053043 -112.405511 321 19154ft 349kts
11-Nov-18 08:26 41.133015 -112.479074 331 21800ft 354kts
11-Nov-18 08:27 41.215009 -112.555376 326 24141ft 365kts
11-Nov-18 08:28 41.294006 -112.642992 319 26177ft 380kts
11-Nov-18 08:29 41.366208 -112.748615 319 28010ft 388kts
11-Nov-18 08:30 41.438760 -112.857176 319 29572ft 396kts
11-Nov-18 08:31 41.510209 -112.966912 319 31467ft 390kts
11-Nov-18 08:32 41.580944 -113.075995 318 33118ft 387kts
11-Nov-18 08:33 41.651329 -113.184445 318 34373ft 388kts
11-Nov-18 08:34 41.721658 -113.292851 318 34396ft 381kts
11-Nov-18 08:35 41.790645 -113.399871 319 34406ft 378kts
11-Nov-18 08:36 41.859177 -113.506669 319 34410ft 377kts
11-Nov-18 08:37 41.927516 -113.613568 319 34414ft 375kts
11-Nov-18 08:38 41.995305 -113.719563 319 34417ft 373kts
11-Nov-18 08:39 42.062414 -113.825358 319 34426ft 372kts
11-Nov-18 08:40 42.129419 -113.931615 319 34429ft 372kts
11-Nov-18 08:41 42.196502 -114.037948 319 34431ft 372kts
11-Nov-18 08:42 42.263633 -114.144486 319 34434ft 372kts
11-Nov-18 08:43 42.330569 -114.250209 319 34436ft 370kts
11-Nov-18 08:44 42.397183 -114.356656 319 34439ft 370kts
11-Nov-18 08:45 42.463342 -114.462837 319 34439ft 369kts
11-Nov-18 08:46 42.530255 -114.567405 320 34439ft 366kts
11-Nov-18 08:47 42.597152 -114.671182 320 34440ft 365kts
11-Nov-18 08:48 42.663873 -114.775219 320 34441ft 364kts
11-Nov-18 08:49 42.730235 -114.878615 320 34440ft 363kts
11-Nov-18 08:50 42.796928 -114.982493 320 34438ft 364kts
11-Nov-18 08:51 42.863313 -115.086554 320 34441ft 364kts
11-Nov-18 08:52 42.929226 -115.190364 320 34445ft 362kts
11-Nov-18 08:53 42.995076 -115.294510 320 34450ft 362kts
11-Nov-18 08:54 43.060603 -115.398524 320 34458ft 361kts
11-Nov-18 08:55 43.125961 -115.502645 320 34465ft 359kts
11-Nov-18 08:56 43.191058 -115.606735 320 34467ft 359kts
11-Nov-18 08:57 43.255848 -115.710702 320 34468ft 358kts
11-Nov-18 08:58 43.320520 -115.814857 319 34469ft 357kts
11-Nov-18 08:59 43.383802 -115.916650 319 34472ft 357kts
11-Nov-18 09:00 43.448135 -116.021065 319 34475ft 357kts
11-Nov-18 09:01 43.512209 -116.125687 319 34478ft 357kts
11-Nov-18 09:02 43.579501 -116.224659 326 34480ft 349kts
11-Nov-18 09:03 43.652255 -116.313576 326 34486ft 349kts
11-Nov-18 09:04 43.724827 -116.402713 326 34497ft 349kts
11-Nov-18 09:05 43.797460 -116.492276 326 34502ft 349kts
11-Nov-18 09:06 43.870271 -116.581606 326 34517ft 350kts
11-Nov-18 09:07 43.943060 -116.671404 325 34524ft 350kts
11-Nov-18 09:08 44.015735 -116.761521 325 34531ft 350kts
11-Nov-18 09:09 44.088357 -116.851944 325 34534ft 349kts
11-Nov-18 09:10 44.160632 -116.942275 325 34554ft 350kts
11-Nov-18 09:11 44.233135 -117.033214 325 34550ft 350kts
11-Nov-18 09:12 44.305525 -117.124330 325 34542ft 351kts
11-Nov-18 09:13 44.378045 -117.215927 324 34533ft 351kts
11-Nov-18 09:14 44.450484 -117.307750 324 34526ft 352kts
11-Nov-18 09:15 44.523129 -117.400159 324 34521ft 352kts
11-Nov-18 09:16 44.595610 -117.492685 324 34518ft 352kts
11-Nov-18 09:17 44.668195 -117.585235 324 34518ft 353kts
11-Nov-18 09:18 44.740607 -117.678494 324 34519ft 353kts
11-Nov-18 09:19 44.812799 -117.772032 322 34518ft 354kts
11-Nov-18 09:20 44.850838 -117.907833 293 34519ft 390kts
11-Nov-18 09:21 44.872214 -118.058364 292 34519ft 393kts
11-Nov-18 09:22 44.892267 -118.210116 291 34517ft 394kts
11-Nov-18 09:23 44.912164 -118.362027 291 34517ft 394kts
11-Nov-18 09:24 44.931893 -118.514289 291 34519ft 395kts
11-Nov-18 09:25 44.951239 -118.667222 291 34519ft 396kts
11-Nov-18 09:26 44.970292 -118.820241 291 34521ft 396kts
11-Nov-18 09:27 44.989109 -118.973408 290 34541ft 396kts
11-Nov-18 09:28 45.007783 -119.127271 290 34559ft 397kts
11-Nov-18 09:29 45.026280 -119.281502 290 34562ft 398kts
11-Nov-18 09:30 45.041519 -119.409967 290 34572ft 398kts
11-Nov-18 09:31 45.061692 -119.582064 289 34577ft 398kts
11-Nov-18 09:32 45.079646 -119.737203 289 34582ft 399kts
11-Nov-18 09:33 45.097248 -119.891166 289 33724ft 390kts
11-Nov-18 09:34 45.111350 -120.015827 289 32173ft 381kts
11-Nov-18 09:35 45.128044 -120.162056 287 30399ft 372kts
11-Nov-18 09:36 45.146386 -120.329384 287 28389ft 364kts
11-Nov-18 09:37 45.159042 -120.446899 286 26962ft 361kts
11-Nov-18 09:38 45.197506 -120.597434 304 24930ft 344kts
11-Nov-18 09:39 45.235453 -120.697033 304 23482ft 343kts
11-Nov-18 09:40 45.281146 -120.815507 304 21765ft 341kts
11-Nov-18 09:41 45.326149 -120.933578 304 20073ft 338kts
11-Nov-18 09:42 45.370694 -121.050942 303 18444ft 333kts
11-Nov-18 09:43 45.413467 -121.163545 303 16894ft 323kts
11-Nov-18 09:44 45.445118 -121.284203 290 14893ft 322kts
11-Nov-18 09:45 45.467902 -121.402203 291 13301ft 293kts
11-Nov-18 09:46 45.490768 -121.517065 290 12084ft 307kts
11-Nov-18 09:47 45.512599 -121.628306 289 10966ft 274kts
11-Nov-18 09:48 45.530175 -121.725821 281 10242ft 246kts
11-Nov-18 09:49 45.533845 -121.825780 273 8778ft 244kts
11-Nov-18 09:50 45.536854 -121.918416 273 7933ft 227kts
11-Nov-18 09:51 45.540933 -122.006058 274 7050ft 218kts
11-Nov-18 09:52 45.531278 -122.091385 256 6391ft 217kts
11-Nov-18 09:53 45.519089 -122.173448 256 5581ft 206kts
11-Nov-18 09:54 45.506768 -122.254230 256 4083ft 210kts
11-Nov-18 09:55 45.495916 -122.334217 281 2893ft 187kts
11-Nov-18 09:56 45.518315 -122.399698 300 2665ft 195kts
11-Nov-18 09:57 45.542879 -122.462552 301 1681ft 169kts
11-Nov-18 09:58 45.566409 -122.522810 301 766ft 168kts
11-Nov-18 09:59 45.586869 -122.575332 298 26ft 127kts
11-Nov-18 10:00 45.592034 -122.590032 275 26ft 1kts
11-Nov-18 10:01 45.592041 -122.590134 274 26ft 5kts
11-Nov-18 10:02 45.591906 -122.593712 192 26ft 6kts
11-Nov-18 10:03 45.591272 -122.594135 205 26ft 0kts
11-Nov-18 10:04 45.591272 -122.594135 205 26ft 0kts
11-Nov-18 10:05 45.591272 -122.594135 205 26ft 0kts
11-Nov-18 10:06 45.591272 -122.594135 205 26ft 0kts
11-Nov-18 10:07 45.591272 -122.594135 205 26ft 0kts
11-Nov-18 10:08 45.591272 -122.594135 205 26ft 0kts
11-Nov-18 10:09 45.591272 -122.594135 205 26ft 0kts
11-Nov-18 10:10 45.591272 -122.594135 205 26ft 0kts

Navigation Log

Ident Type
Flight plan parsing failed, navigation log unavailable